Terminal Aerodrome Forecast
Issued by NWS

Home | Current Version | Previous Version | Text Only | Print | Product List | Glossary On
Versions: 1 2 3 4 5 6 7 8 9 10 11 12 13
514
FTUS44 KCRP 051906 AAA
TAFLRD
TAF AMD
KLRD 051906Z 0519/0618 15014G22KT P6SM SCT060
     FM060000 14008KT P6SM BKN060
     FM060400 05005KT P6SM BKN050
     FM061000 31010KT P6SM FEW050
     FM061400 33014G20KT P6SM SKC=

USA.gov is the U.S. government's official web portal to all federal, state and local government web resources and services.